createdAt,value
2022-10-18T05:03:01.194Z,0.1
2022-10-18T05:05:01.418Z,0.2
2022-10-18T05:06:02.896Z,0.3
2022-10-18T05:08:01.108Z,0.4
2022-10-18T05:09:01.104Z,0.5
2022-10-18T05:11:01.207Z,0.6
2022-10-18T05:12:01.115Z,0.7
2022-10-18T05:13:01.134Z,0.8
2022-10-18T05:14:01.120Z,0.9
2022-10-18T05:16:01.112Z,1.2
2022-10-18T05:17:01.110Z,1.3
2022-10-18T05:18:01.116Z,1.6
2022-10-18T05:19:01.137Z,1.9
2022-10-18T05:20:01.432Z,2.4
2022-10-18T05:21:01.112Z,2.9
2022-10-18T05:22:01.121Z,3.5
2022-10-18T05:23:01.106Z,4.3
2022-10-18T05:24:01.115Z,5.2
2022-10-18T05:25:10.256Z,6.5
2022-10-18T05:26:01.113Z,7.7
2022-10-18T05:27:01.115Z,9.0
2022-10-18T05:28:03.448Z,10.9
2022-10-18T05:29:01.470Z,12.7
2022-10-18T05:31:01.119Z,17.9
2022-10-18T05:33:01.166Z,22.1
2022-10-18T05:34:01.095Z,26.1
2022-10-18T05:35:01.612Z,32.5
2022-10-18T05:36:01.092Z,38.5
2022-10-18T05:37:01.102Z,44.6
2022-10-18T05:38:01.097Z,54.1
2022-10-18T05:39:02.557Z,63.2
2022-10-18T05:40:01.370Z,75.8
2022-10-18T05:41:01.108Z,88.0
2022-10-18T05:42:01.100Z,100.2
2022-10-18T05:43:01.169Z,120.5
2022-10-18T05:44:01.103Z,140.1
2022-10-18T05:46:01.166Z,177.5
2022-10-18T05:47:01.102Z,195.8
2022-10-18T05:48:01.105Z,221.3
2022-10-18T05:49:01.107Z,246.9
2022-10-18T05:50:01.401Z,289.7
2022-10-18T05:51:01.151Z,332.5
2022-10-18T05:52:01.104Z,375.3
2022-10-18T05:53:06.792Z,415.9
2022-10-18T05:54:01.101Z,456.5
2022-10-18T05:56:01.105Z,584.1
2022-10-18T05:57:01.116Z,647.9
2022-10-18T05:58:01.119Z,734.7
2022-10-18T05:59:01.115Z,821.6
2022-10-18T06:01:01.130Z,1030.4
2022-10-18T06:02:01.137Z,1134.8
2022-10-18T06:03:01.143Z,1267.3
2022-10-18T06:04:01.187Z,1399.7
2022-10-18T06:05:01.338Z,1537.2
2022-10-18T06:06:01.116Z,1674.7
2022-10-18T06:07:01.133Z,1812.1
2022-10-18T06:08:01.560Z,1928.0
2022-10-18T06:09:01.116Z,2043.9
2022-10-18T06:10:01.347Z,2154.4
2022-10-18T06:11:01.108Z,2264.9
2022-10-18T06:12:01.145Z,2375.5
2022-10-18T06:13:01.179Z,2532.1
2022-10-18T06:14:01.119Z,2688.8
2022-10-18T06:16:01.109Z,3026.4
2022-10-18T06:17:01.120Z,3195.2
2022-10-18T06:18:01.133Z,3334.4
2022-10-18T06:19:01.118Z,3473.6
2022-10-18T06:20:01.359Z,3620.1
2022-10-18T06:21:01.173Z,3766.5
2022-10-18T06:22:01.111Z,3913.0
2022-10-18T06:24:01.184Z,4112.1
2022-10-18T06:25:01.600Z,4352.1
2022-10-18T06:26:01.135Z,4570.7
2022-10-18T06:27:01.130Z,4789.4
2022-10-18T06:28:01.106Z,4994.7
2022-10-18T06:29:01.153Z,5122.8
2022-10-18T06:31:01.105Z,5598.6
2022-10-18T06:32:01.108Z,5821.9
2022-10-18T06:33:01.111Z,6010.9
2022-10-18T06:34:01.119Z,6192.7
2022-10-18T06:36:01.107Z,6912.8
2022-10-18T06:37:01.098Z,7256.9
2022-10-18T06:38:01.099Z,7502.0
2022-10-18T06:39:01.108Z,7714.9
2022-10-18T06:41:01.105Z,8601.8
2022-10-18T06:42:01.108Z,9045.3
2022-10-18T06:43:16.432Z,9570.7
2022-10-18T06:44:01.083Z,10096.2
2022-10-18T06:46:01.103Z,10982.5
2022-10-18T06:47:01.098Z,11425.6
2022-10-18T06:48:01.109Z,11998.4
2022-10-18T06:49:01.104Z,12571.2
2022-10-18T06:50:01.319Z,13020.3
2022-10-18T06:51:02.149Z,13469.5
2022-10-18T06:52:01.106Z,13918.6
2022-10-18T06:53:01.107Z,14474.0
2022-10-18T06:54:16.683Z,15029.4
2022-10-18T06:55:01.263Z,15198.3
2022-10-18T06:56:01.135Z,15367.3
2022-10-18T06:57:01.105Z,15536.2
2022-10-18T06:58:01.112Z,15546.5
2022-10-18T06:59:01.116Z,15556.9
2022-10-18T07:01:01.110Z,15499.8
2022-10-18T07:02:01.187Z,15471.3
2022-10-18T07:03:01.113Z,15526.7
2022-10-18T07:04:01.107Z,15582.1
2022-10-18T07:05:01.361Z,15527.8
2022-10-18T07:06:01.123Z,15473.5
2022-10-18T07:07:01.115Z,15419.3
2022-10-18T07:08:01.109Z,15395.9
2022-10-18T07:09:01.112Z,15372.6
2022-10-18T07:10:01.336Z,15618.9
2022-10-18T07:11:01.114Z,15865.3
2022-10-18T07:12:01.149Z,16111.6
2022-10-18T07:13:19.904Z,16302.0
2022-10-18T07:14:01.088Z,16492.4
2022-10-18T07:16:01.115Z,16521.5
2022-10-18T07:17:01.114Z,16536.0
2022-10-18T07:18:01.142Z,16381.5
2022-10-18T07:19:01.115Z,16227.1
2022-10-18T07:21:01.120Z,15737.1
2022-10-18T07:22:01.358Z,15492.1
2022-10-18T07:23:01.117Z,15384.1
2022-10-18T07:24:01.109Z,15276.1
2022-10-18T07:26:01.310Z,14937.7
2022-10-18T07:27:01.099Z,14599.3
2022-10-18T07:28:01.117Z,14237.7
2022-10-18T07:29:01.463Z,14022.1
2022-10-18T07:31:03.622Z,13947.0
2022-10-18T07:32:01.099Z,13995.8
2022-10-18T07:33:01.102Z,14077.3
2022-10-18T07:34:01.104Z,14148.5
2022-10-18T07:35:01.181Z,14208.3
2022-10-18T07:36:01.357Z,14397.8
2022-10-18T07:37:01.111Z,14587.3
2022-10-18T07:38:01.106Z,14785.9
2022-10-18T07:39:01.102Z,14809.5
2022-10-18T07:40:01.135Z,14847.9
2022-10-18T07:41:01.568Z,14962.1
2022-10-18T07:42:01.102Z,15076.2
2022-10-18T07:43:04.120Z,15144.4
2022-10-18T07:44:01.374Z,15212.6
2022-10-18T07:46:01.319Z,15529.4
2022-10-18T07:47:01.358Z,15687.8
2022-10-18T07:48:01.102Z,15762.5
2022-10-18T07:49:01.112Z,15837.1
2022-10-18T07:50:01.142Z,16083.5
2022-10-18T07:51:01.322Z,16329.8
2022-10-18T07:52:01.096Z,16576.1
2022-10-18T07:53:01.103Z,17098.3
2022-10-18T07:54:01.101Z,17620.5
2022-10-18T07:55:01.133Z,18389.9
2022-10-18T07:56:02.297Z,19159.2
2022-10-18T07:57:01.104Z,19928.5
2022-10-18T07:58:01.104Z,20828.4
2022-10-18T07:59:01.107Z,21728.3
2022-10-18T08:01:16.184Z,25500.4
2022-10-18T08:02:16.190Z,27386.5
2022-10-18T08:03:01.570Z,30652.6
2022-10-18T08:04:06.275Z,33918.7
2022-10-18T08:06:01.112Z,40130.3
2022-10-18T08:07:01.115Z,43236.1
2022-10-18T08:33:00.999Z,62783.3
2022-10-18T08:34:00.875Z,63333.6
2022-10-18T08:35:01.443Z,63700.5
2022-10-18T08:36:00.875Z,63962.6
2022-10-18T08:37:00.901Z,64159.1
2022-10-18T08:38:00.901Z,64312.0
2022-10-18T08:39:00.870Z,64434.3
2022-10-18T08:41:00.878Z,64617.8
2022-10-18T08:42:00.914Z,64688.3
2022-10-18T08:43:00.872Z,64748.8
2022-10-18T08:44:02.114Z,64801.2
2022-10-18T08:45:41.793Z,65045.8
2022-10-18T08:46:00.876Z,65290.4
2022-10-18T08:47:00.919Z,65535.0
2022-10-18T08:48:00.878Z,64901.0
2022-10-18T08:49:00.878Z,64267.0
2022-10-18T09:03:01.055Z,64404.3
2022-10-18T09:04:00.891Z,64541.7
2022-10-18T09:15:01.635Z,64541.7
2022-10-18T09:18:00.891Z,65038.3
2022-10-18T09:19:01.185Z,65535.0
2022-10-18T09:23:00.952Z,64847.8
2022-10-18T09:24:00.900Z,64160.6
2022-10-18T09:26:00.895Z,61813.9
2022-10-18T09:27:00.978Z,60640.6
2022-10-18T09:28:00.896Z,59151.6
2022-10-18T09:29:00.974Z,57662.6
2022-10-18T09:31:01.167Z,56611.4
2022-10-18T09:32:05.899Z,56085.8
2022-10-18T09:36:02.483Z,54708.9
2022-10-18T09:37:00.892Z,54020.4
2022-10-18T09:38:00.896Z,54707.6
2022-10-18T09:39:00.899Z,55394.8
2022-10-18T09:40:02.066Z,56568.1
2022-10-18T09:41:00.903Z,57741.5
2022-10-18T09:42:01.181Z,58914.8
2022-10-18T09:43:01.173Z,60403.8
2022-10-18T09:44:00.910Z,61892.8
2022-10-18T09:45:03.333Z,62418.4
2022-10-18T09:46:00.910Z,62944.0
2022-10-18T09:47:00.904Z,63469.6
2022-10-18T09:51:00.904Z,64846.5
2022-10-18T09:52:00.910Z,65535.0
2022-10-18T10:45:02.039Z,65535.0
2022-10-18T11:30:01.381Z,65535.0
2022-10-18T11:45:01.352Z,65535.0
2022-10-18T12:00:01.116Z,65535.0
2022-10-18T12:13:01.551Z,64338.5
2022-10-18T12:14:01.123Z,63141.9
2022-10-18T12:15:01.438Z,61848.5
2022-10-18T12:16:01.389Z,60555.0
2022-10-18T12:17:20.610Z,59261.5
2022-10-18T12:29:01.153Z,61654.6
2022-10-18T12:30:01.157Z,62948.1
2022-10-18T12:31:01.745Z,64241.5
2022-10-18T12:32:01.170Z,65535.0
2022-10-18T12:45:07.082Z,65535.0
2022-10-18T13:00:02.286Z,65535.0
2022-10-18T13:15:07.250Z,65535.0
2022-10-18T13:18:01.085Z,65329.3
2022-10-18T13:19:01.112Z,65123.5
2022-10-18T13:20:24.405Z,63844.0
2022-10-18T13:21:01.571Z,62564.5
2022-10-18T13:22:01.108Z,61284.9
2022-10-18T13:23:01.156Z,60396.1
2022-10-18T13:24:01.136Z,59507.2
2022-10-18T13:30:01.115Z,59507.2
2022-10-18T13:33:01.257Z,59712.9
2022-10-18T13:34:01.111Z,59918.7
2022-10-18T13:35:01.104Z,61198.2
2022-10-18T13:36:01.402Z,62477.7
2022-10-18T13:37:01.112Z,63757.3
2022-10-18T13:38:01.113Z,64646.1
2022-10-18T13:39:01.108Z,65535.0
2022-10-18T13:45:01.391Z,65535.0
2022-10-18T14:00:01.125Z,65535.0
2022-10-18T14:15:01.237Z,65535.0
2022-10-18T14:16:01.146Z,64995.7
2022-10-18T14:17:06.890Z,64456.5
2022-10-18T14:18:01.103Z,63625.0
2022-10-18T14:19:01.106Z,62793.5
2022-10-18T14:20:01.106Z,61962.1
2022-10-18T14:22:03.153Z,60711.5
2022-10-18T14:23:01.095Z,60020.5
2022-10-18T14:24:01.098Z,59329.5
2022-10-18T14:25:01.103Z,58638.5
2022-10-18T14:26:01.089Z,57728.2
2022-10-18T14:27:01.797Z,56817.9
2022-10-18T14:28:01.093Z,56513.5
2022-10-18T14:29:01.154Z,56209.0
2022-10-18T14:30:01.137Z,55904.5
2022-10-18T14:31:01.095Z,55346.8
2022-10-18T14:32:01.348Z,55328.3
2022-10-18T14:33:01.088Z,55482.9
2022-10-18T14:34:01.098Z,55929.7
2022-10-18T14:35:27.493Z,56376.5
2022-10-18T14:36:01.078Z,56606.9
2022-10-18T14:37:02.189Z,57256.3
2022-10-18T14:38:01.104Z,57041.3
2022-10-18T14:39:01.096Z,56826.3
2022-10-18T14:40:01.096Z,56611.3
2022-10-18T14:41:01.346Z,56286.5
2022-10-18T14:42:01.557Z,55961.7
2022-10-18T14:43:01.178Z,55089.6
2022-10-18T14:44:01.191Z,54217.5
2022-10-18T14:45:01.162Z,53345.3
2022-10-18T14:46:01.101Z,52991.7
2022-10-18T14:47:01.319Z,52638.1
2022-10-18T14:48:01.125Z,51176.0
2022-10-18T14:49:01.137Z,49713.9
2022-10-18T14:50:01.099Z,48251.7
2022-10-18T14:51:01.099Z,47170.5
2022-10-18T14:52:01.791Z,46089.2
2022-10-18T14:53:01.100Z,45147.0
2022-10-18T14:54:01.189Z,44204.8
2022-10-18T14:55:01.238Z,43262.6
2022-10-18T14:56:01.104Z,43119.8
2022-10-18T14:57:01.314Z,42977.0
2022-10-18T14:58:01.098Z,42799.5
2022-10-18T14:59:01.131Z,42622.1
2022-10-18T15:00:01.113Z,42444.6
2022-10-18T15:01:06.151Z,41620.9
2022-10-18T15:02:01.577Z,40797.3
2022-10-18T15:03:01.175Z,40364.9
2022-10-18T15:04:01.121Z,39932.5
2022-10-18T15:05:01.136Z,39500.1
2022-10-18T15:06:01.109Z,38704.9
2022-10-18T15:07:02.066Z,37909.8
2022-10-18T15:08:01.102Z,37042.1
2022-10-18T15:09:01.104Z,36174.3
2022-10-18T15:10:01.424Z,35306.6
2022-10-18T15:11:01.109Z,33658.4
2022-10-18T15:12:01.787Z,32010.2
2022-10-18T15:13:11.745Z,30133.9
2022-10-18T15:14:01.112Z,28257.5
2022-10-18T15:15:02.183Z,26381.2
2022-10-18T15:16:01.112Z,24919.7
2022-10-18T15:17:02.130Z,23458.1
2022-10-18T15:18:01.111Z,22093.5
2022-10-18T15:19:01.312Z,20728.9
2022-10-18T15:20:03.268Z,19364.3
2022-10-18T15:21:01.389Z,18104.2
2022-10-18T15:22:32.542Z,16844.1
2022-10-18T15:50:16.784Z,6640.0
2022-10-18T15:53:00.710Z,6835.5
2022-10-18T15:54:00.654Z,6952.8
2022-10-18T15:55:00.857Z,7031.0
2022-10-18T15:56:00.675Z,6836.9
2022-10-18T15:57:00.635Z,6691.3
2022-10-18T15:58:00.638Z,6492.0
2022-10-18T15:59:00.645Z,6332.6
2022-10-18T16:01:00.674Z,6104.4
2022-10-18T16:02:00.781Z,6021.7
2022-10-18T16:03:00.643Z,5884.7
2022-10-18T16:04:00.919Z,5766.0
2022-10-18T16:05:00.863Z,5596.9
2022-10-18T16:06:00.699Z,5367.2
2022-10-18T16:07:00.654Z,5137.5
2022-10-18T16:08:00.641Z,4843.1
2022-10-18T16:09:00.646Z,4548.8
2022-10-18T16:10:00.931Z,4254.5
2022-10-18T16:11:00.688Z,4060.5
2022-10-18T16:12:00.681Z,3866.5
2022-10-18T16:13:00.655Z,3696.1
2022-10-18T16:14:00.838Z,3525.7
2022-10-18T16:16:00.697Z,3143.4
2022-10-18T16:17:01.701Z,2931.5
2022-10-18T16:18:00.719Z,2756.7
2022-10-18T16:19:00.653Z,2581.8
2022-10-18T16:20:00.869Z,2406.9
2022-10-18T16:21:00.679Z,2290.3
2022-10-18T16:22:05.325Z,2173.6
2022-10-18T16:23:00.655Z,2074.1
2022-10-18T16:24:00.721Z,1974.7
2022-10-18T16:25:01.353Z,1875.2
2022-10-18T16:26:00.682Z,1769.3
2022-10-18T16:27:00.649Z,1663.5
2022-10-18T16:28:00.652Z,1561.9
2022-10-18T16:29:00.724Z,1460.3
2022-10-18T16:30:01.376Z,1358.7
2022-10-18T16:31:00.683Z,1270.2
2022-10-18T16:32:00.651Z,1181.7
2022-10-18T16:33:00.652Z,1107.5
2022-10-18T16:34:00.654Z,1033.2
2022-10-18T16:35:01.492Z,958.9
2022-10-18T16:36:00.676Z,879.9
2022-10-18T16:37:00.652Z,800.8
2022-10-18T16:38:00.672Z,715.5
2022-10-18T16:39:00.652Z,630.3
2022-10-18T16:40:00.876Z,545.0
2022-10-18T16:41:00.681Z,476.5
2022-10-18T16:42:00.662Z,407.9
2022-10-18T16:43:00.664Z,358.9
2022-10-18T16:44:00.654Z,309.8
2022-10-18T16:46:00.731Z,229.1
2022-10-18T16:47:00.655Z,197.5
2022-10-18T16:48:00.654Z,175.4
2022-10-18T16:49:00.661Z,153.3
2022-10-18T16:51:00.694Z,115.4
2022-10-18T16:52:00.663Z,99.7
2022-10-18T16:53:00.664Z,84.9
2022-10-18T16:54:00.687Z,70.2
2022-10-18T16:55:01.906Z,55.5
2022-10-18T16:56:00.711Z,46.4
2022-10-18T16:57:00.667Z,37.3
2022-10-18T16:58:01.325Z,32.3
2022-10-18T16:59:00.662Z,27.2
2022-10-18T17:01:01.804Z,19.1
2022-10-18T17:02:00.703Z,16.0
2022-10-18T17:03:05.669Z,13.8
2022-10-18T17:04:00.938Z,11.6
2022-10-18T17:05:01.395Z,9.4
2022-10-18T17:06:00.707Z,8.1
2022-10-18T17:07:00.666Z,6.7
2022-10-18T17:08:00.671Z,5.8
2022-10-18T17:09:00.938Z,4.9
2022-10-18T17:11:00.695Z,3.3
2022-10-18T17:12:00.664Z,2.7
2022-10-18T17:13:00.670Z,2.4
2022-10-18T17:14:01.705Z,2.1
2022-10-18T17:15:01.345Z,1.7
2022-10-18T17:16:00.701Z,1.5
2022-10-18T17:17:00.663Z,1.2
2022-10-18T17:18:00.658Z,1.1
2022-10-18T17:19:01.701Z,0.9
2022-10-18T17:21:08.847Z,0.7
2022-10-18T17:22:02.652Z,0.5
2022-10-18T17:24:00.687Z,0.4
2022-10-18T17:27:00.702Z,0.2
2022-10-18T17:28:00.671Z,0.1
